Bradshaw AFB, HI

4:47 AM HST on July 25, 2016 (GMT -1000)
Bradshaw Army Air Field | | Change Station

Elev 6191 ft 19.76 °N, 155.55 °W | Updated 51 minutes ago

Partly Cloudy
Partly Cloudy
60 °F
Feels Like 60 °F
N
7
Wind Variable Wind from SE
Gusts 14 mph

Today
High -- | Low -- °F
--% Chance of Precip.
Yesterday
High -- | Low -- °F
Precip. -- in
Pressure 29.95 in
Visibility 10.0 miles
Clouds Few 100 ft
Dew Point 40 °F
Humidity 48%
Rainfall 0.00 in
Snow Depth Not available.
5:55 AM 7:01 PM
Waning Gibbous, 65% visible
METAR PHSF 251356Z AUTO 13006G12KT 10SM FEW001 16/05 A3031 RMK AO2 SLP142 T01580047 $
Pressure 29.95 in
Visibility 10.0 miles
Clouds Few 100 ft
Dew Point 40 °F
Humidity 48%
Rainfall 0.00 in
Snow Depth Not available.
5:55 AM 7:01 PM
Waning Gibbous, 65% visible
METAR PHSF 251356Z AUTO 13006G12KT 10SM FEW001 16/05 A3031 RMK AO2 SLP142 T01580047 $

10-Day Weather Forecast

Almanac

Astronomy

Jul. 25, 2016 Rise Set
Actual Time
Civil Twilight
Nautical Twilight
Astronomical Twilight
Moon
Length of Visible Light
Length of Day
Tomorrow will be .
, % of the Moon is Illuminated

Today's Extremes

State Highs State Lows

Community

WunderPhotos

Upload Photos

1,927,305 photos uploaded!

WunderBlog® & News

Nearby

Air Quality

  Air Quality AQ Index Pollutant
Not available.

Snow Depth

Station Depth Elevation

Earthquake Activity

City Distance Mag. Time & Date
Minimum magnitude displayed is 2.5.

Coastal Water Temperatures

Place Temperature

Stations

Nearby Weather Stations

Station Location Temp. Windchill Dew Point Humidity Wind Precip. Elev Updated Type
                   

Watches & Warnings

There are currently no watches in effect.